Time;durP1;ratioP1;P1;durP2;ratioP2;P2;SDS_P1;SDS_P2;PMS_P1;PMS_P2;Temp;Humidity;BMP_temperature;BMP_pressure;BME280_temperature;BME280_humidity;BME280_pressure;Samples;Min_cycle;Max_cycle;Signal;HPM_P1;HPM_P2
2021/12/14 00:01:31;;;;;;;33.22;20.77;;;3.70;99.90;;;;;;5031868;28;20045;-71
2021/12/14 00:04:37;;;;;;;63.83;42.72;;;3.80;99.90;;;;;;5030858;28;20121;-71
2021/12/14 00:07:41;;;;;;;38.97;23.23;;;3.80;99.90;;;;;;5029604;28;20045;-71
2021/12/14 00:14:25;;;;;;;40.30;27.65;;;3.80;99.90;;;;;;5031503;28;20408;-71
2021/12/14 00:18:00;;;;;;;33.35;21.05;;;3.80;99.90;;;;;;5030005;28;20060;-71
2021/12/14 00:21:30;;;;;;;32.95;20.40;;;3.70;99.90;;;;;;5026786;28;20048;-71
2021/12/14 00:24:53;;;;;;;32.88;21.25;;;3.80;99.90;;;;;;5033152;28;20037;-71
2021/12/14 00:28:30;;;;;;;37.63;21.85;;;3.80;99.90;;;;;;5031653;28;20041;-71
2021/12/14 00:31:57;;;;;;;64.60;40.08;;;3.80;99.90;;;;;;5030074;28;20663;-71
2021/12/14 00:35:20;;;;;;;57.65;38.25;;;3.70;99.90;;;;;;5032408;28;20494;-71
2021/12/14 00:38:46;;;;;;;41.75;24.40;;;3.70;99.90;;;;;;5028256;28;20060;-71
2021/12/14 00:41:49;;;;;;;36.97;21.90;;;3.70;99.90;;;;;;5031706;28;20044;-71
2021/12/14 00:44:54;;;;;;;30.85;19.80;;;3.70;99.90;;;;;;5029709;28;20584;-71
2021/12/14 00:47:59;;;;;;;37.67;20.13;;;3.60;99.90;;;;;;5030460;28;20123;-71
2021/12/14 00:51:05;;;;;;;33.55;20.08;;;3.50;99.90;;;;;;5033389;28;20056;-71
2021/12/14 00:54:28;;;;;;;39.55;23.05;;;3.50;99.90;;;;;;5029937;28;20048;-71
2021/12/14 00:57:52;;;;;;;32.38;20.77;;;3.40;99.90;;;;;;5029718;28;20040;-71
2021/12/14 01:01:14;;;;;;;31.90;17.55;;;3.40;99.90;;;;;;5031808;28;20064;-71
2021/12/14 01:04:24;;;;;;;28.08;18.17;;;3.40;99.90;;;;;;5030191;28;20040;-71
2021/12/14 01:07:31;;;;;;;32.15;19.85;;;3.40;99.90;;;;;;5033783;28;20048;-71
2021/12/14 01:10:42;;;;;;;35.03;20.73;;;3.40;99.90;;;;;;5031461;28;20064;-71
2021/12/14 01:13:57;;;;;;;27.23;16.73;;;3.40;99.90;;;;;;5028365;28;20052;-71
2021/12/14 01:17:11;;;;;;;37.88;19.67;;;3.40;99.90;;;;;;5031519;28;20053;-71
2021/12/14 01:20:16;;;;;;;29.80;18.45;;;3.40;99.90;;;;;;5030701;28;20040;-71
2021/12/14 01:23:30;;;;;;;30.98;19.15;;;3.40;99.90;;;;;;5032166;28;20041;-71
2021/12/14 01:26:38;;;;;;;26.17;16.15;;;3.40;99.90;;;;;;5028155;28;20036;-71
2021/12/14 01:29:44;;;;;;;31.95;19.23;;;3.30;99.90;;;;;;5029679;28;20487;-71
2021/12/14 01:32:49;;;;;;;25.67;15.88;;;3.40;99.90;;;;;;5030732;28;20044;-71
2021/12/14 01:35:55;;;;;;;24.15;15.45;;;3.40;99.90;;;;;;5031325;28;20049;-71
2021/12/14 01:42:38;;;;;;;21.38;13.68;;;3.40;99.90;;;;;;5018502;28;20048;-71
2021/12/14 01:45:42;;;;;;;20.15;11.32;;;3.40;99.90;;;;;;5027328;28;20049;-71
2021/12/14 01:48:48;;;;;;;20.45;11.45;;;3.50;99.90;;;;;;5027308;28;20044;-71
2021/12/14 01:52:31;;;;;;;33.08;13.00;;;3.40;99.90;;;;;;5030205;28;20045;-71
2021/12/14 01:55:37;;;;;;;166.52;40.63;;;3.40;99.90;;;;;;5037500;28;20060;-71
2021/12/14 01:58:48;;;;;;;26.42;14.18;;;3.40;99.90;;;;;;5028638;28;20057;-71
2021/12/14 02:02:07;;;;;;;24.83;14.38;;;3.30;99.90;;;;;;5025085;28;20040;-71
2021/12/14 02:05:30;;;;;;;22.60;14.85;;;3.30;99.90;;;;;;5029023;28;20045;-71
2021/12/14 02:08:36;;;;;;;25.35;15.57;;;3.30;99.90;;;;;;5026634;28;20048;-71
2021/12/14 02:11:54;;;;;;;23.67;14.48;;;3.30;99.90;;;;;;5029145;28;20048;-71
2021/12/14 02:15:04;;;;;;;24.52;13.57;;;3.30;99.90;;;;;;5039365;28;20056;-71
2021/12/14 02:18:17;;;;;;;44.30;20.05;;;3.20;99.90;;;;;;5026385;28;20373;-71
2021/12/14 02:21:21;;;;;;;41.20;17.45;;;3.20;99.90;;;;;;5030206;28;20040;-71
2021/12/14 02:24:29;;;;;;;31.05;15.55;;;3.10;99.90;;;;;;5024634;28;20040;-71
2021/12/14 02:27:40;;;;;;;36.70;16.90;;;3.10;99.90;;;;;;5027907;28;20048;-71
2021/12/14 02:30:46;;;;;;;31.38;16.52;;;3.00;99.90;;;;;;5026480;28;20056;-71
2021/12/14 02:33:51;;;;;;;32.97;18.88;;;2.80;99.90;;;;;;5029165;28;20664;-71
2021/12/14 02:36:57;;;;;;;35.67;19.80;;;2.70;99.90;;;;;;5028970;28;20479;-71
2021/12/14 02:40:15;;;;;;;32.50;18.90;;;2.60;99.90;;;;;;5028901;28;20036;-71
2021/12/14 02:43:34;;;;;;;26.73;15.07;;;2.40;99.90;;;;;;5030189;28;20368;-71
2021/12/14 02:46:42;;;;;;;28.85;15.68;;;2.30;99.90;;;;;;5036577;28;20527;-71
2021/12/14 02:49:48;;;;;;;36.03;20.50;;;2.20;99.90;;;;;;5027269;28;20376;-71
2021/12/14 02:52:52;;;;;;;31.05;19.20;;;2.20;99.90;;;;;;5029233;28;20033;-71
2021/12/14 02:55:57;;;;;;;29.63;17.92;;;2.20;99.90;;;;;;5035492;28;20372;-71
2021/12/14 02:59:17;;;;;;;33.60;18.75;;;2.10;99.90;;;;;;5029103;28;20048;-71
2021/12/14 03:02:40;;;;;;;33.72;18.38;;;2.00;99.90;;;;;;5029497;28;20380;-71
2021/12/14 03:05:47;;;;;;;30.13;17.58;;;2.00;99.90;;;;;;5026250;28;20049;-71
2021/12/14 03:09:15;;;;;;;22.75;14.82;;;2.10;99.90;;;;;;5025993;28;20053;-71
2021/12/14 03:12:27;;;;;;;24.90;15.98;;;2.10;99.90;;;;;;5030057;28;20044;-71
2021/12/14 03:15:46;;;;;;;28.65;18.25;;;2.10;99.90;;;;;;5027407;28;20645;-71
2021/12/14 03:18:52;;;;;;;96.00;25.42;;;2.00;99.90;;;;;;5027380;28;20088;-71
2021/12/14 03:21:56;;;;;;;45.85;24.38;;;2.00;99.90;;;;;;5029083;28;20064;-71
2021/12/14 03:25:00;;;;;;;42.97;23.75;;;2.00;99.90;;;;;;5029298;28;20064;-71
2021/12/14 03:28:04;;;;;;;35.63;21.42;;;2.00;99.90;;;;;;5032033;28;20389;-71
2021/12/14 03:31:12;;;;;;;34.33;20.70;;;1.90;99.90;;;;;;5031137;28;20072;-71
2021/12/14 03:34:30;;;;;;;34.15;21.17;;;1.90;99.90;;;;;;5044633;28;20048;-71
2021/12/14 03:37:35;;;;;;;39.72;23.67;;;1.80;99.90;;;;;;5028528;28;20048;-71
2021/12/14 03:40:40;;;;;;;39.30;22.50;;;1.80;99.90;;;;;;5028205;28;20041;-71
2021/12/14 03:43:59;;;;;;;37.30;23.83;;;1.90;99.90;;;;;;5029744;28;20080;-71
2021/12/14 03:47:13;;;;;;;36.28;22.63;;;2.00;99.90;;;;;;5024818;28;20048;-71
2021/12/14 03:50:27;;;;;;;35.03;21.00;;;2.00;99.90;;;;;;5031864;28;20052;-71
2021/12/14 03:53:35;;;;;;;33.47;21.73;;;2.00;99.90;;;;;;5034518;28;20037;-71
2021/12/14 03:56:57;;;;;;;33.05;20.42;;;2.00;99.90;;;;;;5030633;28;20040;-71
2021/12/14 04:00:08;;;;;;;36.83;20.08;;;2.00;99.90;;;;;;5031396;28;20044;-71
2021/12/14 04:03:15;;;;;;;32.15;17.15;;;1.90;99.90;;;;;;5027545;28;20104;-71
2021/12/14 04:06:40;;;;;;;28.67;17.45;;;1.90;99.90;;;;;;5032716;28;20087;-71
2021/12/14 04:09:44;;;;;;;35.35;18.45;;;1.80;99.90;;;;;;5028693;28;20036;-71
2021/12/14 04:12:48;;;;;;;31.10;18.02;;;1.70;99.90;;;;;;5029797;28;20078;-71
2021/12/14 04:15:54;;;;;;;31.05;16.92;;;1.70;99.90;;;;;;5039845;28;20040;-71
2021/12/14 04:19:10;;;;;;;30.10;18.65;;;1.80;99.90;;;;;;5035325;28;20052;-71
2021/12/14 04:22:20;;;;;;;30.52;18.73;;;1.70;99.90;;;;;;5031992;28;20040;-71
2021/12/14 04:25:30;;;;;;;43.50;24.00;;;1.80;99.90;;;;;;5037542;28;20040;-71
2021/12/14 04:28:42;;;;;;;45.67;24.95;;;1.80;99.90;;;;;;5027014;28;20056;-71
2021/12/14 04:31:47;;;;;;;46.72;29.30;;;1.90;99.90;;;;;;5035816;28;20036;-71
2021/12/14 04:34:54;;;;;;;38.67;24.13;;;1.90;99.90;;;;;;5029275;28;20041;-71
2021/12/14 04:38:05;;;;;;;43.15;26.23;;;1.80;99.90;;;;;;5029533;28;20056;-71
2021/12/14 04:54:35;;;;;;;36.67;22.52;;;1.40;99.90;;;;;;5028302;28;20494;-71
2021/12/14 04:57:47;;;;;;;82.78;25.38;;;1.20;99.90;;;;;;5027710;28;20052;-71
2021/12/14 05:00:52;;;;;;;86.07;21.50;;;1.10;99.90;;;;;;5030513;28;20049;-71
2021/12/14 05:04:06;;;;;;;75.60;20.50;;;0.90;99.90;;;;;;5030286;28;20048;-71
2021/12/14 05:10:34;;;;;;;115.68;23.65;;;0.60;99.90;;;;;;5039009;28;20420;-71
2021/12/14 05:13:43;;;;;;;466.08;48.67;;;0.50;99.90;;;;;;5038002;28;20065;-71
2021/12/14 05:16:58;;;;;;;374.38;41.75;;;0.70;99.90;;;;;;5030945;28;20041;-71
2021/12/14 05:20:05;;;;;;;299.60;32.08;;;0.80;99.90;;;;;;5030065;28;20044;-71
2021/12/14 05:23:09;;;;;;;77.50;20.15;;;0.80;99.90;;;;;;5029828;28;20118;-71
2021/12/14 05:26:15;;;;;;;49.55;22.08;;;0.80;99.90;;;;;;5031202;28;20052;-71
2021/12/14 05:29:23;;;;;;;98.97;26.42;;;0.70;99.90;;;;;;5029452;28;20036;-71
2021/12/14 05:32:28;;;;;;;69.03;26.45;;;0.80;99.90;;;;;;5025502;28;20044;-71
2021/12/14 05:35:36;;;;;;;42.65;25.02;;;0.80;99.90;;;;;;5026289;28;20052;-71
2021/12/14 05:45:52;;;;;;;50.20;30.48;;;0.90;99.90;;;;;;5027162;28;20048;-71
2021/12/14 05:49:00;;;;;;;48.97;30.15;;;1.00;99.90;;;;;;5028215;28;20393;-71
2021/12/14 05:52:13;;;;;;;46.50;27.30;;;1.10;99.90;;;;;;5038671;28;20056;-71
2021/12/14 05:55:24;;;;;;;43.25;25.40;;;1.20;99.90;;;;;;5030794;28;20044;-71
2021/12/14 05:58:29;;;;;;;41.28;25.33;;;1.30;99.90;;;;;;5024210;28;20056;-71
2021/12/14 06:01:33;;;;;;;40.30;23.90;;;1.30;99.90;;;;;;5029027;28;20045;-71
2021/12/14 06:04:42;;;;;;;43.65;24.83;;;1.30;99.90;;;;;;5029233;28;20060;-71
2021/12/14 06:07:50;;;;;;;37.22;23.30;;;1.40;99.90;;;;;;5027378;28;20044;-71
2021/12/14 06:10:55;;;;;;;40.47;25.02;;;1.40;99.90;;;;;;5028413;28;20048;-71
2021/12/14 06:14:00;;;;;;;44.25;25.63;;;1.40;99.90;;;;;;5029219;28;20519;-71
2021/12/14 06:17:05;;;;;;;42.85;25.55;;;1.30;99.90;;;;;;5029142;28;20056;-72
2021/12/14 06:20:18;;;;;;;41.63;24.70;;;1.20;99.90;;;;;;5029363;28;20040;-71
2021/12/14 06:23:25;;;;;;;36.40;22.80;;;1.10;99.90;;;;;;5024169;28;20043;-71
2021/12/14 06:26:50;;;;;;;43.92;22.58;;;1.00;99.90;;;;;;5034608;28;20044;-71
2021/12/14 06:29:59;;;;;;;152.35;27.13;;;0.90;99.90;;;;;;5027607;28;20064;-71
2021/12/14 06:33:09;;;;;;;128.65;30.02;;;0.80;99.90;;;;;;5029137;28;20044;-71
2021/12/14 06:36:51;;;;;;;38.53;19.98;;;0.70;99.90;;;;;;5029355;28;20049;-71
2021/12/14 06:40:08;;;;;;;295.40;34.60;;;0.60;99.90;;;;;;5026221;28;20044;-71
2021/12/14 06:43:16;;;;;;;541.20;52.38;;;0.50;99.90;;;;;;5028987;28;20040;-71
2021/12/14 06:46:31;;;;;;;230.85;31.52;;;0.60;99.90;;;;;;5028187;28;20048;-71
2021/12/14 06:49:35;;;;;;;155.48;29.92;;;0.60;99.90;;;;;;5026459;28;20049;-71
2021/12/14 06:52:40;;;;;;;37.05;21.02;;;0.60;99.90;;;;;;5024395;28;20048;-71
2021/12/14 06:56:13;;;;;;;49.10;20.63;;;0.60;99.90;;;;;;5029655;28;20044;-71
2021/12/14 06:59:36;;;;;;;51.03;21.73;;;0.60;99.90;;;;;;5026383;28;20048;-71
2021/12/14 07:02:49;;;;;;;32.08;20.38;;;0.50;99.90;;;;;;5022026;28;20162;-71
2021/12/14 07:06:32;;;;;;;37.20;23.25;;;0.50;99.90;;;;;;5023497;28;20389;-71
2021/12/14 07:09:44;;;;;;;46.20;26.00;;;0.60;99.90;;;;;;5022882;28;20053;-71
2021/12/14 07:12:48;;;;;;;35.08;22.92;;;1.10;99.90;;;;;;5024274;28;20048;-71
2021/12/14 07:15:52;;;;;;;130.10;23.42;;;3.00;99.90;;;;;;5024501;28;20028;-71
2021/12/14 07:19:00;;;;;;;50.05;16.63;;;4.30;99.90;;;;;;5033171;28;20057;-71
2021/12/14 07:22:04;;;;;;;25.45;15.38;;;4.90;99.90;;;;;;5027517;28;20053;-71
2021/12/14 07:25:19;;;;;;;24.38;15.35;;;5.90;99.90;;;;;;5019526;28;20037;-72
2021/12/14 07:28:29;;;;;;;21.13;12.85;;;7.20;99.90;;;;;;5017046;28;20052;-72
2021/12/14 07:31:40;;;;;;;20.77;12.90;;;8.50;99.90;;;;;;5026160;28;20109;-71
2021/12/14 07:34:44;;;;;;;20.88;12.57;;;9.90;99.90;;;;;;5027377;28;20051;-72
2021/12/14 07:37:49;;;;;;;16.83;11.55;;;11.10;99.90;;;;;;5027691;28;20060;-72
2021/12/14 07:41:04;;;;;;;19.38;12.50;;;12.60;99.90;;;;;;5024368;28;20076;-72
2021/12/14 07:44:11;;;;;;;20.25;11.93;;;13.40;99.90;;;;;;5025014;28;20048;-72
2021/12/14 07:47:18;;;;;;;18.17;11.73;;;14.70;99.90;;;;;;5026024;28;20048;-72
2021/12/14 07:50:42;;;;;;;17.67;10.77;;;16.00;99.90;;;;;;5026277;28;20041;-70
2021/12/14 07:53:49;;;;;;;17.65;10.50;;;17.40;96.90;;;;;;5028513;28;20041;-70
2021/12/14 07:57:25;;;;;;;12.02;10.00;;;18.70;95.00;;;;;;5022785;28;20044;-70
2021/12/14 08:00:35;;;;;;;13.25;10.38;;;19.10;92.50;;;;;;5024191;28;20045;-70
2021/12/14 08:03:39;;;;;;;12.88;10.40;;;18.70;92.60;;;;;;5021906;28;20502;-70
2021/12/14 08:06:54;;;;;;;12.07;9.45;;;19.30;92.40;;;;;;5023501;28;20052;-70
2021/12/14 08:10:08;;;;;;;10.70;8.27;;;20.60;90.20;;;;;;5027438;28;20049;-70
2021/12/14 08:13:22;;;;;;;11.82;9.63;;;21.80;86.50;;;;;;5030285;28;20056;-70
2021/12/14 08:16:36;;;;;;;13.27;10.70;;;21.70;80.20;;;;;;5029603;28;20041;-70
2021/12/14 08:19:43;;;;;;;13.50;11.43;;;20.00;83.50;;;;;;5027401;28;20475;-70
2021/12/14 08:22:47;;;;;;;12.10;10.80;;;20.00;81.10;;;;;;5028411;28;20041;-70
2021/12/14 08:25:57;;;;;;;12.68;10.88;;;19.10;82.90;;;;;;5022297;28;20924;-70
2021/12/14 08:29:14;;;;;;;11.93;10.70;;;21.00;82.50;;;;;;5029709;28;20052;-70
2021/12/14 08:32:24;;;;;;;10.63;9.50;;;22.00;80.30;;;;;;5029108;28;20105;-70
2021/12/14 08:35:29;;;;;;;11.43;9.80;;;22.90;79.60;;;;;;5030168;28;20048;-70
2021/12/14 08:38:35;;;;;;;12.38;9.75;;;23.40;78.30;;;;;;5029101;28;20037;-70
2021/12/14 08:41:48;;;;;;;10.50;9.38;;;24.70;77.80;;;;;;5029268;28;20045;-70
2021/12/14 08:44:59;;;;;;;12.18;9.73;;;25.70;75.20;;;;;;5026718;28;20064;-71
2021/12/14 08:48:03;;;;;;;11.80;9.35;;;26.50;72.40;;;;;;5024495;28;20056;-70
2021/12/14 08:51:14;;;;;;;11.73;10.27;;;26.90;69.50;;;;;;5022080;28;20124;-71
2021/12/14 08:54:31;;;;;;;11.55;10.32;;;22.60;68.80;;;;;;5028967;28;20417;-71
2021/12/14 08:57:37;;;;;;;11.55;10.35;;;22.40;71.10;;;;;;5026528;28;20385;-71
2021/12/14 09:00:46;;;;;;;11.57;10.38;;;24.20;70.80;;;;;;5020780;28;20476;-71
2021/12/14 09:03:56;;;;;;;11.75;10.55;;;25.10;68.00;;;;;;5026704;28;20052;-70
2021/12/14 09:07:08;;;;;;;11.52;10.32;;;23.20;68.80;;;;;;5025538;28;20048;-71
2021/12/14 09:10:23;;;;;;;12.95;11.65;;;21.30;68.80;;;;;;5029044;28;20060;-70
2021/12/14 09:13:28;;;;;;;12.70;11.40;;;21.70;70.10;;;;;;5027987;28;20526;-70
2021/12/14 09:16:34;;;;;;;14.45;12.95;;;23.60;68.60;;;;;;5028667;28;20044;-70
2021/12/14 09:19:48;;;;;;;17.75;14.23;;;21.50;69.90;;;;;;5027635;28;20040;-71
2021/12/14 09:22:57;;;;;;;16.13;14.40;;;21.30;72.60;;;;;;5030660;28;20044;-70
2021/12/14 09:26:03;;;;;;;13.88;12.48;;;20.80;72.80;;;;;;5027054;28;20064;-70
2021/12/14 09:29:13;;;;;;;16.33;14.20;;;20.10;71.80;;;;;;5027003;28;20048;-70
2021/12/14 09:32:24;;;;;;;16.65;14.85;;;18.20;75.30;;;;;;5030050;28;20389;-70
2021/12/14 09:35:34;;;;;;;15.77;14.02;;;17.00;76.90;;;;;;5021320;28;20056;-70
2021/12/14 09:38:46;;;;;;;15.07;13.27;;;20.10;77.10;;;;;;5028360;28;20048;-70
2021/12/14 09:41:53;;;;;;;14.65;12.75;;;23.20;72.70;;;;;;5025462;28;20049;-70
2021/12/14 09:45:05;;;;;;;14.13;12.60;;;24.60;70.70;;;;;;5027715;28;20048;-71
2021/12/14 09:48:17;;;;;;;11.43;10.23;;;26.60;67.80;;;;;;5029776;28;20048;-70
2021/12/14 09:51:44;;;;;;;9.38;8.32;;;27.90;66.30;;;;;;5025109;28;20037;-71
2021/12/14 09:54:50;;;;;;;13.60;9.00;;;28.10;64.50;;;;;;5027828;28;20049;-70
2021/12/14 09:58:02;;;;;;;11.57;9.52;;;27.50;63.50;;;;;;5029955;28;20044;-70
2021/12/14 10:01:15;;;;;;;10.75;9.65;;;26.50;64.60;;;;;;5029632;28;20044;-71
2021/12/14 10:04:29;;;;;;;13.35;11.35;;;28.50;63.00;;;;;;5023932;28;20091;-70
2021/12/14 10:07:34;;;;;;;14.45;12.82;;;24.60;64.10;;;;;;5025182;28;20056;-70
2021/12/14 10:10:40;;;;;;;13.80;12.40;;;20.70;69.40;;;;;;5028922;28;20036;-70
2021/12/14 10:13:46;;;;;;;16.98;14.35;;;21.00;71.80;;;;;;5028199;28;20436;-70
2021/12/14 10:16:51;;;;;;;17.63;15.65;;;20.20;71.50;;;;;;5029463;28;20032;-70
2021/12/14 10:19:56;;;;;;;18.70;16.58;;;19.60;73.10;;;;;;5026705;28;20683;-70
2021/12/14 10:23:02;;;;;;;17.73;15.77;;;18.00;75.80;;;;;;5028979;28;20044;-70
2021/12/14 10:26:07;;;;;;;21.45;17.23;;;18.80;77.00;;;;;;5028726;28;20408;-70
2021/12/14 10:29:12;;;;;;;18.67;16.17;;;20.00;73.90;;;;;;5026427;28;20373;-70
2021/12/14 10:32:21;;;;;;;21.13;17.42;;;21.00;74.80;;;;;;5028102;28;20052;-71
2021/12/14 10:35:34;;;;;;;20.35;17.60;;;23.30;71.80;;;;;;5030535;28;20121;-71
2021/12/14 10:39:00;;;;;;;20.27;17.50;;;25.20;69.10;;;;;;5022460;28;20496;-70
2021/12/14 10:45:38;;;;;;;23.33;20.05;;;25.20;68.10;;;;;;5026426;28;20032;-71
2021/12/14 10:48:45;;;;;;;21.33;19.02;;;23.90;66.80;;;;;;5026437;28;20040;-70
2021/12/14 10:51:56;;;;;;;23.40;19.13;;;20.70;71.70;;;;;;5028563;28;20052;-70
2021/12/14 10:55:10;;;;;;;21.40;19.00;;;21.90;71.50;;;;;;5025934;28;20515;-71
2021/12/14 10:58:19;;;;;;;22.40;19.65;;;23.90;70.00;;;;;;5028259;28;20036;-70
2021/12/14 11:01:31;;;;;;;22.80;19.45;;;25.30;68.10;;;;;;5026822;28;20048;-70
2021/12/14 11:04:52;;;;;;;24.45;21.23;;;25.40;66.30;;;;;;5027054;28;20381;-70
2021/12/14 11:07:57;;;;;;;23.60;20.83;;;26.10;66.20;;;;;;5026240;28;20033;-70
2021/12/14 11:11:03;;;;;;;25.35;21.83;;;27.40;66.60;;;;;;5025120;28;20099;-70
2021/12/14 11:14:11;;;;;;;24.05;20.27;;;28.90;64.60;;;;;;5029536;28;20056;-70
2021/12/14 11:20:57;;;;;;;23.90;20.13;;;28.80;63.50;;;;;;5027887;28;20044;-70
2021/12/14 11:24:02;;;;;;;28.48;23.23;;;28.60;62.40;;;;;;5029792;28;20040;-70
2021/12/14 11:27:38;;;;;;;27.45;23.92;;;28.00;62.90;;;;;;5028314;28;20041;-71
2021/12/14 11:31:01;;;;;;;33.63;27.88;;;24.20;65.00;;;;;;5022465;28;20053;-70
2021/12/14 11:34:29;;;;;;;36.28;29.08;;;22.50;67.40;;;;;;5025787;28;20045;-70
2021/12/14 11:37:34;;;;;;;35.55;27.52;;;23.20;70.20;;;;;;5027015;28;20483;-70
2021/12/14 11:40:39;;;;;;;28.85;22.98;;;24.50;68.80;;;;;;5027305;28;20369;-71
2021/12/14 11:43:51;;;;;;;25.50;21.42;;;25.40;65.80;;;;;;5025065;28;20408;-70
2021/12/14 11:47:22;;;;;;;24.08;19.92;;;28.10;65.90;;;;;;5028795;28;20044;-71
2021/12/14 11:50:37;;;;;;;19.83;15.45;;;29.90;62.30;;;;;;5032154;28;20048;-71
2021/12/14 11:53:52;;;;;;;18.52;15.15;;;30.70;59.30;;;;;;5027550;28;20036;-70
2021/12/14 11:56:57;;;;;;;21.00;16.85;;;30.40;61.70;;;;;;5026718;28;20057;-70
2021/12/14 12:00:13;;;;;;;24.27;19.63;;;27.30;62.90;;;;;;5029591;28;20056;-70
2021/12/14 12:03:36;;;;;;;27.42;22.88;;;26.10;64.00;;;;;;5032451;28;20788;-70
2021/12/14 12:10:03;;;;;;;31.23;24.80;;;20.50;72.20;;;;;;5031062;28;20483;-72
2021/12/14 12:13:07;;;;;;;30.55;24.85;;;21.00;73.40;;;;;;5026304;28;20044;-73
2021/12/14 12:16:25;;;;;;;27.80;22.30;;;21.60;71.90;;;;;;5031065;28;20045;-72
2021/12/14 12:19:29;;;;;;;23.85;18.83;;;23.20;70.10;;;;;;5026450;28;20049;-72
2021/12/14 12:22:39;;;;;;;26.77;21.27;;;24.50;69.80;;;;;;5030259;28;20491;-72
2021/12/14 12:25:57;;;;;;;23.35;18.80;;;24.90;68.70;;;;;;5029969;28;20041;-70
2021/12/14 12:29:06;;;;;;;21.88;17.55;;;25.10;68.00;;;;;;5029040;28;20064;-70
2021/12/14 12:32:19;;;;;;;21.98;18.05;;;25.60;67.90;;;;;;5030170;28;20060;-70
2021/12/14 12:35:29;;;;;;;22.60;18.08;;;26.80;67.80;;;;;;5030112;28;20526;-70
2021/12/14 12:39:08;;;;;;;25.13;20.67;;;27.60;67.00;;;;;;5025484;28;20040;-71
2021/12/14 12:42:14;;;;;;;24.33;19.95;;;27.50;65.90;;;;;;4983963;28;20150;-71
2021/12/14 12:45:33;;;;;;;21.80;18.35;;;27.60;65.80;;;;;;5026062;28;20044;-71
2021/12/14 12:48:44;;;;;;;23.25;18.52;;;27.90;64.60;;;;;;5022692;28;20056;-71
2021/12/14 12:52:03;;;;;;;22.65;16.23;;;28.30;65.50;;;;;;5027369;28;20048;-71
2021/12/14 12:55:14;;;;;;;23.20;18.00;;;28.30;65.20;;;;;;5030708;28;20045;-70
2021/12/14 12:58:19;;;;;;;20.13;16.58;;;28.40;63.80;;;;;;5024119;28;20052;-71
2021/12/14 13:01:23;;;;;;;20.27;15.93;;;27.90;62.80;;;;;;5017517;28;20485;-70
2021/12/14 13:04:42;;;;;;;18.65;15.32;;;27.70;64.80;;;;;;5020363;28;20059;-70
2021/12/14 13:07:49;;;;;;;21.60;16.42;;;27.90;64.70;;;;;;5030115;28;20384;-70
2021/12/14 13:11:01;;;;;;;17.42;15.10;;;27.40;65.70;;;;;;5030717;28;20044;-71
2021/12/14 13:14:14;;;;;;;19.08;15.13;;;28.30;65.00;;;;;;5030478;28;20048;-71
2021/12/14 13:17:18;;;;;;;17.55;14.57;;;27.30;64.50;;;;;;5028295;28;20365;-71
2021/12/14 13:20:29;;;;;;;20.10;15.98;;;26.80;66.30;;;;;;5023929;28;20048;-71
2021/12/14 13:23:43;;;;;;;;;;;25.40;66.50;;;;;;5024413;28;20113;-72
2021/12/14 13:27:12;;;;;;;21.65;16.88;;;24.20;68.90;;;;;;5028758;28;19913;-70
2021/12/14 13:30:17;;;;;;;19.95;15.88;;;23.30;71.40;;;;;;5027595;28;20044;-72
2021/12/14 13:33:27;;;;;;;24.05;17.42;;;22.90;72.50;;;;;;5024996;28;20064;-72
2021/12/14 13:36:31;;;;;;;24.60;17.40;;;22.30;74.00;;;;;;5029086;28;20503;-72
2021/12/14 13:39:38;;;;;;;25.00;19.25;;;21.10;75.80;;;;;;5027906;28;20052;-72
2021/12/14 13:43:11;;;;;;;22.90;17.60;;;20.80;77.40;;;;;;5029251;28;20480;-72
2021/12/14 13:46:16;;;;;;;24.25;18.65;;;20.50;78.80;;;;;;5023217;28;20512;-72
2021/12/14 13:49:20;;;;;;;27.45;20.33;;;20.10;79.40;;;;;;5028060;28;20052;-72
2021/12/14 13:52:25;;;;;;;22.30;17.85;;;19.80;81.40;;;;;;5027340;28;20064;-72
2021/12/14 13:55:43;;;;;;;23.88;17.13;;;19.60;80.40;;;;;;5025099;28;20040;-72
2021/12/14 13:58:48;;;;;;;26.77;18.23;;;19.40;80.80;;;;;;5026623;28;20048;-72
2021/12/14 14:01:54;;;;;;;24.55;17.67;;;19.10;83.10;;;;;;5030568;28;20052;-71
2021/12/14 14:04:58;;;;;;;23.60;17.05;;;18.70;83.10;;;;;;5031838;28;21649;-72
2021/12/14 14:08:10;;;;;;;21.52;15.82;;;18.80;83.90;;;;;;5024660;28;20060;-72
2021/12/14 14:11:14;;;;;;;26.98;20.02;;;19.20;83.30;;;;;;5020738;28;20473;-71
2021/12/14 14:14:18;;;;;;;24.05;16.92;;;19.90;82.60;;;;;;5026866;28;20506;-72
2021/12/14 14:17:25;;;;;;;22.92;16.17;;;20.20;80.90;;;;;;5027501;28;20048;-71
2021/12/14 14:20:36;;;;;;;21.85;16.25;;;20.00;80.80;;;;;;5027726;28;20056;-72
2021/12/14 14:23:47;;;;;;;23.42;17.15;;;20.00;81.30;;;;;;5027423;28;20049;-72
2021/12/14 14:26:52;;;;;;;23.17;16.40;;;19.80;82.60;;;;;;5016783;28;20044;-72
2021/12/14 14:29:56;;;;;;;24.15;15.98;;;19.40;83.50;;;;;;5027640;28;20157;-72
2021/12/14 14:33:18;;;;;;;20.17;15.50;;;19.00;83.80;;;;;;5024000;28;20116;-71
2021/12/14 14:36:32;;;;;;;23.30;16.00;;;18.70;85.50;;;;;;5029811;28;20052;-71
2021/12/14 14:39:55;;;;;;;22.88;16.65;;;18.40;86.80;;;;;;5026342;28;20053;-72
2021/12/14 14:42:59;;;;;;;24.77;17.50;;;17.70;88.40;;;;;;5026983;28;20052;-71
2021/12/14 14:46:04;;;;;;;28.10;18.08;;;17.10;91.00;;;;;;5029148;28;20487;-71
2021/12/14 14:49:09;;;;;;;25.40;17.50;;;16.70;91.50;;;;;;5024497;28;20057;-71
2021/12/14 14:52:23;;;;;;;27.80;17.60;;;16.40;91.70;;;;;;5026961;28;20040;-71
2021/12/14 14:55:50;;;;;;;29.13;19.77;;;16.00;92.60;;;;;;5025193;28;20052;-71
2021/12/14 14:59:15;;;;;;;27.75;19.42;;;15.70;93.20;;;;;;5027587;28;20060;-71
2021/12/14 15:02:44;;;;;;;35.08;20.92;;;15.20;94.20;;;;;;5026520;28;20487;-71
2021/12/14 15:06:04;;;;;;;30.27;19.88;;;14.90;95.50;;;;;;5026911;28;20377;-71
2021/12/14 15:09:12;;;;;;;28.45;19.05;;;14.50;96.50;;;;;;5018694;28;20381;-71
2021/12/14 15:12:19;;;;;;;32.13;22.52;;;14.10;97.60;;;;;;5022602;28;20515;-71
2021/12/14 15:15:27;;;;;;;31.40;21.83;;;13.70;99.40;;;;;;5026795;28;20044;-71
2021/12/14 15:19:06;;;;;;;36.30;23.13;;;13.40;99.90;;;;;;5025128;28;20045;-71
2021/12/14 15:22:14;;;;;;;38.40;22.88;;;13.10;99.90;;;;;;5029201;28;20388;-71
2021/12/14 15:25:29;;;;;;;36.67;21.85;;;12.70;99.90;;;;;;5034119;28;20040;-71
2021/12/14 15:28:32;;;;;;;51.42;28.20;;;12.60;99.90;;;;;;5032746;28;20036;-71
2021/12/14 15:31:36;;;;;;;34.10;22.50;;;12.50;99.90;;;;;;5032495;28;20091;-71
2021/12/14 15:34:56;;;;;;;102.95;47.95;;;12.40;99.90;;;;;;5033142;28;20060;-71
2021/12/14 15:38:16;;;;;;;61.28;32.00;;;12.10;99.90;;;;;;5029882;28;20053;-71
2021/12/14 15:41:22;;;;;;;39.63;23.08;;;11.90;99.90;;;;;;5027119;28;20040;-71
2021/12/14 15:44:39;;;;;;;36.58;19.65;;;11.70;99.90;;;;;;5028391;28;20388;-71
2021/12/14 15:48:04;;;;;;;37.05;20.67;;;11.60;99.90;;;;;;5026560;28;20492;-71
2021/12/14 15:51:17;;;;;;;50.35;28.40;;;11.40;99.90;;;;;;5031955;28;20041;-71
2021/12/14 15:54:42;;;;;;;45.05;24.25;;;11.20;99.90;;;;;;5033019;28;20048;-71
2021/12/14 15:57:47;;;;;;;26.13;14.95;;;10.90;99.90;;;;;;5026307;28;20496;-71
2021/12/14 16:01:07;;;;;;;33.90;17.48;;;10.80;99.90;;;;;;5023055;28;20041;-71
2021/12/14 16:04:18;;;;;;;67.88;37.50;;;10.60;99.90;;;;;;5027414;28;20040;-71
2021/12/14 16:07:33;;;;;;;47.53;25.92;;;10.50;99.90;;;;;;5026389;28;20041;-71
2021/12/14 16:10:38;;;;;;;65.32;32.45;;;10.30;99.90;;;;;;5029128;28;20495;-71
2021/12/14 16:17:18;;;;;;;42.30;21.90;;;10.10;99.90;;;;;;5031932;28;20045;-71
2021/12/14 16:20:29;;;;;;;57.38;26.45;;;10.00;99.90;;;;;;5030913;28;20044;-71
2021/12/14 16:23:37;;;;;;;76.25;38.47;;;9.90;99.90;;;;;;5032409;28;20500;-71
2021/12/14 16:26:41;;;;;;;108.38;57.13;;;9.90;99.90;;;;;;5028779;28;20049;-71
2021/12/14 16:29:45;;;;;;;149.68;83.45;;;9.80;99.90;;;;;;5029126;28;20044;-71
2021/12/14 16:33:10;;;;;;;79.03;48.90;;;9.70;99.90;;;;;;5032364;28;20064;-71
2021/12/14 16:36:30;;;;;;;21.15;13.00;;;9.70;99.90;;;;;;5031387;28;20036;-71
2021/12/14 16:39:38;;;;;;;59.20;35.08;;;9.60;99.90;;;;;;5029388;28;20052;-71
2021/12/14 16:42:47;;;;;;;39.00;17.92;;;9.70;99.90;;;;;;5029230;28;20053;-71
2021/12/14 16:45:51;;;;;;;64.00;37.17;;;9.70;99.90;;;;;;5032646;28;20056;-70
2021/12/14 16:48:56;;;;;;;45.47;31.27;;;9.60;99.90;;;;;;5029534;28;20044;-71
2021/12/14 16:52:08;;;;;;;33.13;20.83;;;9.60;99.90;;;;;;5031342;28;20056;-71
2021/12/14 16:55:36;;;;;;;49.78;27.60;;;9.60;99.90;;;;;;5025244;28;20056;-71
2021/12/14 16:58:41;;;;;;;113.43;54.47;;;9.60;99.90;;;;;;5029865;28;20091;-72
2021/12/14 17:01:49;;;;;;;262.33;122.93;;;9.60;99.90;;;;;;5029791;28;20041;-70